Deanville, Texas
Current Conditions -  °F | °C
As of 1:15 AM on Saturday 20 Dec 2014 (Local Time) from KRWV Reporting Station
Haze Haze  
Wind Chill: 44°   Ceiling: 500
Heat Index: 46°   Visibility: 4mi
Dew Point: 46°   Wind: 6mph
Humidity: 100%   Direction: 360°N
Pressure: 30.21"   Gusts: NA
Location:  30.43°N, 96.76°W
Report Text: KRWV 200715Z AUTO 36005KT 4SM BR BKN005 OVC014 08/08 A3021 RMK AO2
Loading
Personal Weather Stations






























Interactive Weather Map New forecast layout! Learn more

10-Day Weather Forecast

Advertisements
Track Severe Weather on mobile